createdAt,value
2023-08-12T00:04:01.353Z,3.45
2023-08-12T00:08:58.228Z,2.97
2023-08-12T00:13:54.969Z,3.63
2023-08-12T00:18:52.486Z,3.78
2023-08-12T00:23:50.330Z,3.28
2023-08-12T00:28:50.742Z,3.45
2023-08-12T00:33:47.628Z,4.32
2023-08-12T00:38:45.141Z,3.35
2023-08-12T00:43:41.928Z,3.45
2023-08-12T00:48:38.927Z,3.13
2023-08-12T00:53:36.141Z,3.65
2023-08-12T00:58:33.644Z,3.67
2023-08-12T01:03:31.368Z,3.70
2023-08-12T01:08:31.182Z,3.28
2023-08-12T01:13:33.583Z,3.35
2023-08-12T01:18:30.757Z,3.70
2023-08-12T01:23:28.506Z,3.45
2023-08-12T01:28:25.398Z,3.35
2023-08-12T01:33:29.976Z,3.45
2023-08-12T01:38:29.631Z,3.53
2023-08-12T01:43:27.185Z,4.07
2023-08-12T01:48:24.134Z,4.47
2023-08-12T01:53:20.957Z,4.38
2023-08-12T01:58:18.415Z,4.10
2023-08-12T02:03:15.375Z,4.60
2023-08-12T02:08:12.155Z,3.88
2023-08-12T02:13:09.320Z,4.03
2023-08-12T02:18:07.047Z,3.58
2023-08-12T02:23:04.979Z,4.18
2023-08-12T02:28:01.739Z,4.10
2023-08-12T02:32:58.654Z,4.50
2023-08-12T02:37:56.245Z,4.85
2023-08-12T02:42:53.028Z,4.53
2023-08-12T02:47:49.903Z,4.80
2023-08-12T02:52:46.930Z,4.00
2023-08-12T02:57:44.740Z,4.10
2023-08-12T03:02:43.466Z,4.07
2023-08-12T03:07:40.617Z,4.45
2023-08-12T03:12:37.939Z,4.50
2023-08-12T03:17:35.909Z,3.92
2023-08-12T03:22:33.735Z,4.75
2023-08-12T03:27:30.701Z,4.68
2023-08-12T03:32:27.609Z,4.95
2023-08-12T03:37:26.906Z,4.90
2023-08-12T03:42:24.716Z,3.97
2023-08-12T03:47:24.226Z,4.72
2023-08-12T03:52:21.503Z,4.30
2023-08-12T03:57:19.002Z,4.90
2023-08-12T04:02:16.176Z,4.97
2023-08-12T04:07:13.518Z,4.65
2023-08-12T04:12:10.696Z,5.35
2023-08-12T04:17:08.220Z,5.13
2023-08-12T04:22:05.192Z,5.30
2023-08-12T04:27:03.468Z,4.82
2023-08-12T04:32:00.749Z,4.82
2023-08-12T04:36:58.206Z,4.57
2023-08-12T04:41:55.236Z,4.47
2023-08-12T04:46:52.411Z,5.22
2023-08-12T04:51:52.615Z,4.82
2023-08-12T04:56:50.580Z,4.88
2023-08-12T05:02:02.314Z,5.03
2023-08-12T05:07:01.954Z,6.68
2023-08-12T05:11:59.797Z,6.05
2023-08-12T05:16:57.069Z,5.55
2023-08-12T05:21:54.006Z,5.70
2023-08-12T05:26:51.117Z,6.10
2023-08-12T05:31:48.740Z,5.90
2023-08-12T05:36:45.779Z,6.13
2023-08-12T05:41:42.672Z,5.68
2023-08-12T05:46:39.774Z,5.65
2023-08-12T18:49:25.425Z,3.97
2023-08-12T18:54:22.356Z,3.50
2023-08-12T18:59:20.124Z,4.40
2023-08-12T19:04:20.922Z,3.90
2023-08-12T19:09:19.203Z,4.55
2023-08-12T19:14:16.122Z,4.20
2023-08-12T19:19:13.044Z,3.80
2023-08-12T19:24:09.838Z,4.20
2023-08-12T19:29:07.462Z,4.30
2023-08-12T19:34:04.466Z,3.78
2023-08-12T19:39:01.355Z,3.45
2023-08-12T19:43:59.527Z,4.25
2023-08-12T19:48:57.052Z,3.50
2023-08-12T19:53:55.490Z,3.67
2023-08-12T19:58:52.305Z,4.00
2023-08-12T20:03:49.195Z,3.75
2023-08-12T20:08:46.819Z,4.43
2023-08-12T20:13:43.644Z,3.92
2023-08-12T20:18:40.497Z,4.10
2023-08-12T20:23:37.384Z,3.78
2023-08-12T20:28:34.991Z,4.72
2023-08-12T20:33:32.192Z,3.80
2023-08-12T20:38:30.517Z,4.15
2023-08-12T20:43:27.321Z,4.35
2023-08-12T20:48:24.925Z,4.72
2023-08-12T20:53:21.777Z,3.70
2023-08-12T20:58:18.684Z,4.35
2023-08-12T21:03:15.649Z,3.58
2023-08-12T21:08:13.124Z,3.45
2023-08-12T21:13:10.038Z,3.50
2023-08-12T21:18:07.691Z,3.63
2023-08-12T21:23:05.152Z,3.90
2023-08-12T21:28:02.741Z,5.65
2023-08-12T21:32:59.699Z,3.55
2023-08-12T21:37:57.304Z,3.83
2023-08-12T21:42:54.159Z,3.53
2023-08-12T21:47:51.789Z,3.70
2023-08-12T21:52:48.587Z,3.78
2023-08-12T21:57:45.387Z,4.70
2023-08-12T22:02:42.226Z,3.65
2023-08-12T22:07:39.751Z,3.58
2023-08-12T22:12:36.530Z,4.05
2023-08-12T22:17:33.398Z,4.28
2023-08-12T22:22:30.237Z,3.65
2023-08-12T22:27:27.852Z,4.07
2023-08-12T22:32:24.739Z,4.22
2023-08-12T22:37:21.526Z,4.32
2023-08-12T22:42:18.334Z,3.80
2023-08-12T22:47:15.856Z,3.88
2023-08-12T22:52:12.922Z,4.65
2023-08-12T22:57:10.729Z,4.10
2023-08-12T23:02:07.558Z,4.00
2023-08-12T23:07:05.408Z,3.97
2023-08-12T23:12:02.234Z,5.22
2023-08-12T23:16:59.093Z,4.60
2023-08-12T23:21:56.256Z,4.22
2023-08-12T23:26:53.743Z,4.32
2023-08-12T23:31:50.540Z,4.35
2023-08-12T23:36:47.441Z,4.22
2023-08-12T23:41:44.321Z,4.07
2023-08-12T23:46:45.034Z,4.38
2023-08-12T23:51:42.094Z,4.18
2023-08-12T23:56:40.890Z,4.20
